Allentown, NY

1:32 AM EST on February 11, 2016 (GMT -0500)
Wellsville Municipal-Tarantine | | Change Station
CLOSE
Current Station
Airport
Location: Wellsville,
Elevation: 2123 ft
Nearby Weather Stations

Elev 2123 ft 42.11 °N, 77.98 °W | Updated 36 minutes ago

Clear
Clear
10 °F
Feels Like -2 °F
N
8
Wind Variable Wind from West

Today
High -- | Low -- °F
--% Chance of Precip.
Yesterday
High -- | Low -- °F
Precip. -- in
Pressure 29.82 in
Visibility 10.0 miles
Clouds Clear
Windchill -2 °F
Dew Point 3 °F
Humidity 73%
Rainfall 0.00 in
Snow Depth Not available.
7:14 AM 5:39 PM
Waxing Crescent, 10% visible
METAR KELZ 110556Z AUTO 26007KT 10SM CLR M12/M16 A2971 RMK AO2 SLP098 60000 T11221161 11089 21122 55001 $
Pressure 29.82 in
Visibility 10.0 miles
Clouds Clear
Windchill -2 °F
Dew Point 3 °F
Humidity 73%
Rainfall 0.00 in
Snow Depth Not available.
7:14 AM 5:39 PM
Waxing Crescent, 10% visible
METAR KELZ 110556Z AUTO 26007KT 10SM CLR M12/M16 A2971 RMK AO2 SLP098 60000 T11221161 11089 21122 55001 $

10-Day Weather Forecast

Almanac

Astronomy

Feb. 11, 2016 Rise Set
Actual Time
Civil Twilight
Nautical Twilight
Astronomical Twilight
Moon
Length of Visible Light
Length of Day
Tomorrow will be .
, % of the Moon is Illuminated

Today's Extremes

State Highs State Lows

Community

WunderPhotos

Upload Photos

1,892,028 photos uploaded!

WunderBlog® & News

Nearby

Air Quality

  Air Quality AQ Index Pollutant
Not available.

Snow Depth

Station Depth Elevation

Earthquake Activity

City Distance Mag. Time & Date
Minimum magnitude displayed is 2.5.

Coastal Water Temperatures

Place Temperature

Stations

Nearby Weather Stations

Station Location Temp. Windchill Dew Point Humidity Wind Precip. Elev Updated Type
                   

Watches & Warnings

There are currently no watches in effect.